Time;durP1;ratioP1;P1;durP2;ratioP2;P2;SDS_P1;SDS_P2;PMS_P1;PMS_P2;Temp;Humidity;BMP_temperature;BMP_pressure;BME280_temperature;BME280_humidity;BME280_pressure;Samples;Min_cycle;Max_cycle;Signal;HPM_P1;HPM_P2
2022/07/15 00:02:09;;;;;;;4.80;0.40;;;13.50;99.90;;;;;;5010090;28;20565;-72
2022/07/15 00:04:36;;;;;;;1.83;0.37;;;13.50;99.90;;;;;;5009359;28;20037;-72
2022/07/15 00:07:03;;;;;;;1.80;0.30;;;13.50;99.90;;;;;;4991492;28;20355;-73
2022/07/15 00:12:13;;;;;;;2.88;0.22;;;13.40;99.90;;;;;;5011326;28;20595;-72
2022/07/15 00:14:39;;;;;;;3.60;0.40;;;13.30;99.90;;;;;;5012017;28;20029;-72
2022/07/15 00:17:07;;;;;;;1.77;0.30;;;13.30;99.90;;;;;;5013489;28;20495;-72
2022/07/15 00:19:36;;;;;;;1.55;0.20;;;13.30;99.90;;;;;;5014460;28;20128;-72
2022/07/15 00:22:02;;;;;;;0.70;0.30;;;13.30;99.90;;;;;;5013586;28;20029;-72
2022/07/15 00:24:29;;;;;;;0.80;0.20;;;13.30;99.90;;;;;;5013992;28;20038;-72
2022/07/15 00:26:55;;;;;;;0.98;0.20;;;13.30;99.90;;;;;;4999459;28;20363;-72
2022/07/15 00:29:21;;;;;;;1.70;0.20;;;13.20;99.90;;;;;;5016447;28;20037;-72
2022/07/15 00:31:46;;;;;;;1.50;0.20;;;13.10;99.90;;;;;;5012122;28;20026;-72
2022/07/15 00:34:12;;;;;;;2.72;0.20;;;13.00;99.90;;;;;;5002533;28;20047;-73
2022/07/15 00:36:39;;;;;;;1.58;0.30;;;12.90;99.90;;;;;;5000629;28;20687;-72
2022/07/15 00:39:06;;;;;;;1.85;0.30;;;12.80;99.90;;;;;;4993622;28;20076;-72
2022/07/15 00:41:38;;;;;;;3.42;0.25;;;12.80;99.90;;;;;;5012853;28;20084;-72
2022/07/15 00:44:05;;;;;;;2.65;0.30;;;12.80;99.90;;;;;;5013296;28;20034;-72
2022/07/15 00:46:31;;;;;;;2.28;0.40;;;12.80;99.90;;;;;;5026544;28;20033;-72
2022/07/15 00:48:58;;;;;;;2.33;0.28;;;12.80;99.90;;;;;;5010360;28;20055;-72
2022/07/15 00:51:24;;;;;;;3.53;0.20;;;12.80;99.90;;;;;;5011235;28;20037;-72
2022/07/15 00:53:52;;;;;;;5.93;0.30;;;12.70;99.90;;;;;;5017154;28;20025;-72
2022/07/15 00:56:21;;;;;;;1.75;0.20;;;12.70;99.90;;;;;;5013009;28;20227;-73
2022/07/15 00:58:48;;;;;;;1.42;0.30;;;12.70;99.90;;;;;;4995528;28;20026;-72
2022/07/15 01:01:19;;;;;;;2.53;0.30;;;12.60;99.90;;;;;;5016818;28;20433;-72
2022/07/15 01:03:48;;;;;;;2.45;0.30;;;12.50;99.90;;;;;;4994852;28;20057;-72
2022/07/15 01:06:14;;;;;;;1.10;0.20;;;12.50;99.90;;;;;;5012890;28;20383;-72
2022/07/15 01:08:40;;;;;;;2.70;0.40;;;12.50;99.90;;;;;;5012200;28;20110;-72
2022/07/15 01:11:06;;;;;;;4.85;0.30;;;12.50;99.90;;;;;;5010612;28;20156;-72
2022/07/15 01:13:32;;;;;;;3.00;0.30;;;12.40;99.90;;;;;;4995397;28;20032;-72
2022/07/15 01:15:57;;;;;;;2.45;0.52;;;12.40;99.90;;;;;;5010707;28;20064;-73
2022/07/15 01:18:24;;;;;;;2.75;0.40;;;12.40;99.90;;;;;;5010885;28;20048;-73
2022/07/15 01:20:49;;;;;;;1.15;0.20;;;12.50;99.90;;;;;;5012397;28;20486;-72
2022/07/15 01:23:17;;;;;;;2.20;0.20;;;12.40;99.90;;;;;;5012822;28;20029;-72
2022/07/15 01:25:47;;;;;;;1.40;0.30;;;12.40;99.90;;;;;;5011158;28;20611;-72
2022/07/15 01:28:14;;;;;;;2.28;0.40;;;12.40;99.90;;;;;;4994973;28;20064;-72
2022/07/15 01:30:40;;;;;;;1.38;0.20;;;12.40;99.90;;;;;;5025649;28;20477;-72
2022/07/15 01:33:09;;;;;;;1.55;0.20;;;12.40;99.90;;;;;;4995518;28;20125;-72
2022/07/15 01:35:35;;;;;;;0.90;0.20;;;12.40;99.90;;;;;;5010631;28;20042;-72
2022/07/15 01:38:01;;;;;;;1.73;0.38;;;12.30;99.90;;;;;;4994471;28;20096;-72
2022/07/15 01:40:27;;;;;;;1.88;0.30;;;12.20;99.90;;;;;;5015993;28;20083;-72
2022/07/15 01:42:54;;;;;;;1.23;0.50;;;12.30;99.90;;;;;;5015250;28;20056;-73
2022/07/15 01:45:20;;;;;;;1.95;0.30;;;12.30;99.90;;;;;;5000673;28;20243;-72
2022/07/15 01:47:49;;;;;;;1.48;0.30;;;12.30;99.90;;;;;;5027180;28;20030;-72
2022/07/15 01:50:37;;;;;;;1.50;0.30;;;12.30;99.90;;;;;;5011567;28;20110;-72
2022/07/15 01:53:10;;;;;;;1.35;0.28;;;12.30;99.90;;;;;;5010607;28;20403;-71
2022/07/15 01:55:36;;;;;;;2.80;0.40;;;12.20;99.90;;;;;;4995478;28;20029;-72
2022/07/15 01:58:01;;;;;;;4.45;0.40;;;12.20;99.90;;;;;;5016534;28;20044;-72
2022/07/15 02:00:27;;;;;;;1.00;0.30;;;12.10;99.90;;;;;;5011515;28;20028;-72
2022/07/15 02:02:53;;;;;;;2.88;0.40;;;12.10;99.90;;;;;;5010795;28;20041;-72
2022/07/15 02:05:20;;;;;;;2.50;0.40;;;12.20;99.90;;;;;;5024657;28;20116;-73
2022/07/15 02:07:48;;;;;;;3.30;0.40;;;12.30;99.90;;;;;;5015804;28;20037;-72
2022/07/15 02:10:16;;;;;;;2.15;0.30;;;12.30;99.90;;;;;;5000211;28;20394;-74
2022/07/15 02:12:45;;;;;;;1.70;0.30;;;12.40;99.90;;;;;;5000759;28;20026;-72
2022/07/15 02:15:12;;;;;;;1.95;0.40;;;12.40;99.90;;;;;;5011823;28;20420;-72
2022/07/15 02:17:42;;;;;;;1.50;0.30;;;12.40;99.90;;;;;;5010224;28;20912;-72
2022/07/15 02:20:09;;;;;;;1.67;0.20;;;12.40;99.90;;;;;;5015363;28;20108;-72
2022/07/15 02:22:37;;;;;;;1.38;0.22;;;12.40;99.90;;;;;;4993234;28;20043;-72
2022/07/15 02:25:03;;;;;;;2.63;0.30;;;12.40;99.90;;;;;;5009803;28;20025;-72
2022/07/15 02:27:30;;;;;;;2.25;0.40;;;12.40;99.90;;;;;;5010906;28;20065;-72
2022/07/15 02:29:56;;;;;;;1.98;0.30;;;12.50;99.90;;;;;;5010334;28;20140;-72
2022/07/15 02:32:23;;;;;;;1.70;0.30;;;12.50;99.90;;;;;;5009711;28;20030;-72
2022/07/15 02:34:48;;;;;;;3.05;0.55;;;12.60;99.90;;;;;;4993400;28;20022;-72
2022/07/15 02:37:14;;;;;;;1.17;0.30;;;12.60;99.90;;;;;;5010954;28;20029;-73
2022/07/15 02:39:40;;;;;;;1.25;0.30;;;12.70;99.90;;;;;;4993363;28;20111;-72
2022/07/15 02:42:06;;;;;;;2.45;0.63;;;12.70;99.90;;;;;;4998443;28;20029;-72
2022/07/15 02:44:33;;;;;;;2.38;0.30;;;12.80;99.90;;;;;;5015254;28;20037;-72
2022/07/15 02:46:59;;;;;;;2.53;0.30;;;12.80;99.90;;;;;;5014435;28;20084;-72
2022/07/15 02:49:28;;;;;;;4.13;0.40;;;12.80;99.90;;;;;;5013884;28;20065;-72
2022/07/15 02:51:55;;;;;;;2.22;0.38;;;12.90;99.90;;;;;;4998175;28;20549;-72
2022/07/15 02:54:23;;;;;;;2.00;0.30;;;12.90;99.90;;;;;;5006269;28;20059;-72
2022/07/15 02:56:49;;;;;;;2.47;0.30;;;12.90;99.90;;;;;;4993734;28;20040;-72
2022/07/15 02:59:15;;;;;;;1.77;0.40;;;13.00;99.90;;;;;;4988096;28;20381;-72
2022/07/15 03:01:41;;;;;;;1.10;0.30;;;13.00;99.90;;;;;;5005025;28;20080;-72
2022/07/15 03:04:07;;;;;;;1.40;0.30;;;13.00;99.90;;;;;;4993601;28;20501;-72
2022/07/15 03:06:34;;;;;;;1.45;0.20;;;13.10;99.90;;;;;;5014227;28;20021;-73
2022/07/15 03:09:00;;;;;;;1.58;0.20;;;13.10;99.90;;;;;;5009795;28;20434;-72
2022/07/15 03:11:26;;;;;;;1.23;0.20;;;13.10;99.90;;;;;;5009321;28;20045;-72
2022/07/15 03:13:52;;;;;;;1.65;0.20;;;13.00;99.90;;;;;;4987566;28;20032;-72
2022/07/15 03:16:18;;;;;;;2.22;0.30;;;13.10;99.90;;;;;;5013490;28;20022;-73
2022/07/15 03:18:48;;;;;;;1.48;0.20;;;13.10;99.90;;;;;;4998430;28;20053;-73
2022/07/15 03:21:14;;;;;;;3.58;0.20;;;13.20;99.90;;;;;;5013410;28;20064;-73
2022/07/15 03:23:40;;;;;;;1.45;0.20;;;13.20;99.90;;;;;;5008766;28;20151;-72
2022/07/15 03:26:07;;;;;;;0.55;0.20;;;13.20;99.90;;;;;;5014366;28;20033;-73
2022/07/15 03:28:33;;;;;;;2.05;0.20;;;13.20;99.90;;;;;;5013971;28;20026;-73
2022/07/15 03:30:59;;;;;;;1.63;0.20;;;13.20;99.90;;;;;;5014265;28;20445;-73
2022/07/15 03:33:25;;;;;;;1.35;0.30;;;13.30;99.90;;;;;;5008791;28;20022;-72
2022/07/15 03:35:51;;;;;;;0.85;0.20;;;13.30;99.90;;;;;;5008414;28;20424;-72
2022/07/15 03:38:19;;;;;;;1.13;0.10;;;13.30;99.90;;;;;;4997499;28;20054;-72
2022/07/15 03:40:45;;;;;;;2.30;0.30;;;13.30;99.90;;;;;;5014617;28;20159;-72
2022/07/15 03:43:11;;;;;;;2.78;0.40;;;13.40;99.90;;;;;;5010401;28;20029;-72
2022/07/15 03:45:36;;;;;;;2.05;0.30;;;13.40;99.90;;;;;;5009422;28;20443;-72
2022/07/15 03:48:03;;;;;;;0.75;0.15;;;13.40;99.90;;;;;;5012443;28;20026;-72
2022/07/15 03:50:35;;;;;;;1.50;0.13;;;13.40;99.90;;;;;;4996687;28;20042;-72
2022/07/15 03:53:01;;;;;;;1.83;0.20;;;13.40;99.90;;;;;;5012585;28;20084;-73
2022/07/15 03:55:27;;;;;;;1.83;0.20;;;13.50;99.90;;;;;;4996224;28;20042;-72
2022/07/15 03:57:53;;;;;;;2.50;0.30;;;13.50;99.90;;;;;;5012968;28;20108;-73
2022/07/15 04:00:18;;;;;;;4.97;0.40;;;13.50;99.90;;;;;;5014028;28;20029;-72
2022/07/15 04:02:44;;;;;;;1.70;0.32;;;13.50;99.90;;;;;;5027180;28;20026;-72
2022/07/15 04:05:10;;;;;;;3.50;0.40;;;13.60;99.90;;;;;;5012839;28;20153;-72
2022/07/15 04:07:36;;;;;;;1.95;0.30;;;13.60;99.90;;;;;;4997167;28;20034;-73
2022/07/15 04:10:02;;;;;;;1.73;0.30;;;13.70;99.90;;;;;;4995563;28;20044;-73
2022/07/15 04:12:30;;;;;;;2.30;0.35;;;13.70;99.90;;;;;;5007661;28;20056;-72
2022/07/15 04:14:55;;;;;;;3.85;0.38;;;13.70;99.90;;;;;;5010019;28;20116;-72
2022/07/15 04:17:21;;;;;;;5.22;0.30;;;13.70;99.90;;;;;;5000440;28;20367;-72
2022/07/15 04:19:47;;;;;;;2.97;0.40;;;13.70;99.90;;;;;;4995301;28;20249;-73
2022/07/15 04:22:13;;;;;;;2.08;0.35;;;13.70;99.90;;;;;;5012752;28;20409;-73
2022/07/15 04:24:44;;;;;;;2.60;0.38;;;13.80;99.90;;;;;;4998310;28;20116;-73
2022/07/15 04:27:13;;;;;;;4.22;1.02;;;13.70;99.90;;;;;;5017191;28;20053;-73
2022/07/15 04:29:39;;;;;;;3.10;0.60;;;13.80;99.90;;;;;;5011354;28;20183;-73
2022/07/15 04:32:06;;;;;;;4.00;0.40;;;13.70;99.90;;;;;;4995807;28;20029;-73
2022/07/15 04:34:36;;;;;;;;;;;13.80;99.90;;;;;;5001924;28;20036;-73
2022/07/15 04:37:02;;;;;;;3.90;0.40;;;13.80;99.90;;;;;;5011410;28;19913;-73
2022/07/15 04:39:29;;;;;;;6.38;0.60;;;13.80;99.90;;;;;;5009892;28;20548;-74
2022/07/15 04:41:56;;;;;;;3.10;0.30;;;13.80;99.90;;;;;;5012060;28;20034;-73
2022/07/15 04:44:22;;;;;;;2.35;0.30;;;13.90;99.90;;;;;;5011524;28;20554;-73
2022/07/15 04:46:49;;;;;;;4.30;0.70;;;13.90;99.90;;;;;;5022958;28;20030;-73
2022/07/15 04:52:16;;;;;;;4.40;0.40;;;13.90;99.90;;;;;;5010687;28;20128;-73
2022/07/15 04:54:45;;;;;;;3.83;0.50;;;14.00;99.90;;;;;;5009251;28;20462;-73
2022/07/15 04:57:14;;;;;;;4.38;0.70;;;14.00;99.90;;;;;;5013033;28;22281;-72
2022/07/15 04:59:40;;;;;;;5.40;0.50;;;14.00;99.90;;;;;;4989300;28;20038;-73
2022/07/15 05:02:09;;;;;;;4.15;0.75;;;14.00;99.90;;;;;;5011742;28;20111;-75
2022/07/15 05:04:39;;;;;;;2.50;0.68;;;14.00;99.90;;;;;;5015260;28;20091;-74
2022/07/15 05:07:07;;;;;;;2.70;0.50;;;14.10;99.90;;;;;;5011685;28;20489;-73
2022/07/15 05:09:34;;;;;;;4.63;0.60;;;14.10;99.90;;;;;;5009964;28;20045;-72
2022/07/15 05:12:00;;;;;;;3.13;0.40;;;14.10;99.90;;;;;;5014663;28;20171;-73
2022/07/15 05:14:26;;;;;;;3.42;0.60;;;14.10;99.90;;;;;;5010069;28;20030;-72
2022/07/15 05:16:52;;;;;;;3.13;0.40;;;14.10;99.90;;;;;;5023574;28;20029;-73
2022/07/15 05:19:18;;;;;;;3.00;0.40;;;14.10;99.90;;;;;;5009446;28;20030;-72
2022/07/15 05:21:44;;;;;;;1.98;0.40;;;14.20;99.90;;;;;;4993611;28;20291;-73
2022/07/15 05:24:10;;;;;;;2.50;0.38;;;14.20;99.90;;;;;;5004965;28;20034;-72
2022/07/15 05:26:36;;;;;;;2.17;0.40;;;14.30;99.90;;;;;;4998432;28;20117;-73
2022/07/15 05:29:04;;;;;;;2.97;0.40;;;14.30;99.90;;;;;;5009135;28;20328;-73
2022/07/15 05:31:30;;;;;;;2.45;0.30;;;14.40;99.90;;;;;;4993332;28;20025;-73
2022/07/15 05:33:58;;;;;;;3.67;0.40;;;14.60;99.90;;;;;;4993886;28;20127;-73
2022/07/15 05:36:23;;;;;;;2.42;0.32;;;14.60;99.90;;;;;;5010494;28;20116;-73
2022/07/15 05:38:52;;;;;;;2.50;0.40;;;14.70;99.90;;;;;;4963739;28;1101918;-73
2022/07/15 05:41:18;;;;;;;3.35;0.38;;;14.80;99.90;;;;;;5014948;28;20093;-73
2022/07/15 05:43:44;;;;;;;2.60;0.40;;;14.80;99.90;;;;;;5011722;28;20052;-73
2022/07/15 05:46:11;;;;;;;4.55;0.40;;;14.80;99.90;;;;;;4999378;28;20037;-73
2022/07/15 05:48:46;;;;;;;5.57;0.30;;;14.80;99.90;;;;;;5010677;28;20047;-73
2022/07/15 05:51:13;;;;;;;2.50;0.30;;;15.10;99.90;;;;;;5000020;28;20478;-73
2022/07/15 05:53:38;;;;;;;3.33;0.40;;;15.20;99.90;;;;;;5010544;28;20037;-73
2022/07/15 05:56:06;;;;;;;4.28;0.30;;;15.40;99.90;;;;;;5010373;28;20029;-73
2022/07/15 05:58:33;;;;;;;4.75;0.45;;;15.40;99.90;;;;;;5005995;28;20136;-73
2022/07/15 06:00:59;;;;;;;6.18;0.40;;;15.50;99.90;;;;;;4996011;28;20040;-74
2022/07/15 06:03:31;;;;;;;5.20;0.30;;;15.70;99.90;;;;;;5010485;28;20116;-74
2022/07/15 06:05:58;;;;;;;7.32;0.60;;;15.70;99.90;;;;;;5009710;28;20029;-73
2022/07/15 06:08:24;;;;;;;3.83;0.30;;;15.90;99.90;;;;;;5008214;28;20029;-74
2022/07/15 06:10:50;;;;;;;3.35;0.20;;;16.20;99.90;;;;;;5006467;28;20115;-73
2022/07/15 06:13:20;;;;;;;2.47;0.30;;;16.20;99.90;;;;;;5010672;28;20056;-73
2022/07/15 06:15:46;;;;;;;2.80;0.30;;;16.20;99.90;;;;;;4987706;28;20410;-74
2022/07/15 06:18:18;;;;;;;3.05;0.32;;;16.40;99.90;;;;;;5011727;28;20031;-73
2022/07/15 06:20:44;;;;;;;2.55;0.30;;;16.40;99.90;;;;;;4997138;28;20025;-73
2022/07/15 06:23:10;;;;;;;3.08;0.22;;;16.50;99.90;;;;;;5008395;28;20038;-73
2022/07/15 06:25:36;;;;;;;2.65;0.25;;;16.50;99.90;;;;;;5025588;28;20107;-73
2022/07/15 06:28:02;;;;;;;2.25;0.20;;;16.50;99.90;;;;;;5007449;28;20030;-73
2022/07/15 06:30:29;;;;;;;5.53;0.30;;;16.90;99.90;;;;;;4994181;28;20054;-73
2022/07/15 06:32:54;;;;;;;1.52;0.20;;;16.90;99.90;;;;;;5006068;28;20120;-73
2022/07/15 06:35:20;;;;;;;3.67;0.20;;;16.90;99.90;;;;;;5004512;28;20076;-73
2022/07/15 06:37:47;;;;;;;2.50;0.20;;;17.20;99.90;;;;;;5007593;28;20081;-76
2022/07/15 06:40:13;;;;;;;1.92;0.20;;;17.40;99.90;;;;;;5011444;28;20030;-73
2022/07/15 06:42:38;;;;;;;2.88;0.28;;;17.60;99.90;;;;;;4994734;28;20034;-74
2022/07/15 06:45:07;;;;;;;3.22;0.30;;;17.90;99.90;;;;;;4993281;28;20025;-74
2022/07/15 06:47:33;;;;;;;2.15;0.20;;;17.70;99.90;;;;;;5008485;28;20045;-73
2022/07/15 06:50:04;;;;;;;2.53;0.47;;;17.90;99.90;;;;;;4996449;28;20034;-73
2022/07/15 06:52:30;;;;;;;1.67;0.28;;;17.70;99.90;;;;;;5009864;28;20029;-73
2022/07/15 06:54:55;;;;;;;3.15;0.30;;;17.40;99.90;;;;;;4991442;28;20025;-72
2022/07/15 06:57:22;;;;;;;1.33;0.20;;;17.50;99.90;;;;;;5001614;28;20025;-74
2022/07/15 06:59:49;;;;;;;2.08;0.20;;;17.50;99.90;;;;;;4990281;28;20033;-73
2022/07/15 07:02:16;;;;;;;1.48;0.10;;;17.90;99.90;;;;;;5003911;28;20442;-74
2022/07/15 07:04:42;;;;;;;3.03;0.20;;;18.10;99.90;;;;;;5006327;28;20034;-73
2022/07/15 07:07:08;;;;;;;1.65;0.20;;;17.70;99.90;;;;;;5008525;28;20384;-73
2022/07/15 07:09:34;;;;;;;1.60;0.10;;;17.90;99.90;;;;;;5008763;28;20033;-73
2022/07/15 07:11:59;;;;;;;2.47;0.28;;;18.40;99.90;;;;;;4994745;28;20091;-73
2022/07/15 07:14:25;;;;;;;2.50;0.20;;;18.10;99.90;;;;;;5006494;28;20414;-73
2022/07/15 07:16:51;;;;;;;1.45;0.20;;;18.40;99.90;;;;;;5008917;28;20025;-73
2022/07/15 07:19:16;;;;;;;1.05;0.10;;;18.60;99.90;;;;;;5008368;28;20510;-74
2022/07/15 07:21:42;;;;;;;1.95;0.10;;;19.20;99.90;;;;;;5007381;28;20057;-74
2022/07/15 07:24:08;;;;;;;0.80;0.10;;;19.40;99.90;;;;;;5008197;28;20025;-73
2022/07/15 07:26:34;;;;;;;1.50;0.10;;;19.40;99.90;;;;;;5007829;28;20030;-73
2022/07/15 07:29:00;;;;;;;1.42;0.10;;;19.40;99.90;;;;;;5005101;28;20026;-74
2022/07/15 07:31:26;;;;;;;1.67;0.10;;;19.00;99.90;;;;;;5008646;28;20041;-73
2022/07/15 07:33:57;;;;;;;0.75;0.10;;;18.80;99.90;;;;;;5026350;28;20021;-74
2022/07/15 07:36:23;;;;;;;2.03;0.10;;;19.30;99.90;;;;;;5005953;28;20415;-74
2022/07/15 07:38:49;;;;;;;2.10;0.10;;;19.10;99.90;;;;;;5006411;28;20049;-74
2022/07/15 07:41:15;;;;;;;2.08;0.10;;;19.70;99.90;;;;;;5008338;28;20030;-74
2022/07/15 07:43:41;;;;;;;0.90;0.10;;;19.50;99.90;;;;;;5022585;28;20025;-73
2022/07/15 07:46:06;;;;;;;2.33;0.20;;;19.20;99.90;;;;;;4996398;28;20492;-73
2022/07/15 07:48:32;;;;;;;1.15;0.10;;;18.80;99.90;;;;;;5009337;28;20587;-74
2022/07/15 07:50:58;;;;;;;1.42;0.20;;;19.00;99.90;;;;;;4989534;28;20029;-73
2022/07/15 07:53:24;;;;;;;0.80;0.10;;;19.40;99.90;;;;;;5010730;28;20029;-73
2022/07/15 07:55:50;;;;;;;0.40;0.10;;;19.40;99.90;;;;;;5010486;28;20564;-73
2022/07/15 07:58:16;;;;;;;1.55;0.10;;;19.60;99.90;;;;;;5004667;28;20030;-73
2022/07/15 08:00:43;;;;;;;1.25;0.10;;;20.00;99.90;;;;;;5006192;28;20040;-73
2022/07/15 08:03:09;;;;;;;1.50;0.10;;;19.70;99.90;;;;;;5006918;28;20436;-73
2022/07/15 08:05:35;;;;;;;1.27;0.10;;;19.60;99.90;;;;;;5003007;28;20017;-74
2022/07/15 08:08:11;;;;;;;1.35;0.10;;;19.30;99.90;;;;;;5008701;28;20108;-73
2022/07/15 08:10:37;;;;;;;1.38;0.10;;;19.70;99.90;;;;;;5007221;28;20494;-73
2022/07/15 08:13:03;;;;;;;1.30;0.08;;;19.70;99.90;;;;;;5005961;28;20030;-73
2022/07/15 08:15:28;;;;;;;1.30;0.08;;;19.90;99.90;;;;;;5009966;28;20041;-73
2022/07/15 08:17:54;;;;;;;0.60;0.03;;;19.80;99.90;;;;;;5003448;28;20029;-74
2022/07/15 08:20:20;;;;;;;0.95;0.00;;;19.90;99.90;;;;;;5005517;28;20095;-73
2022/07/15 08:22:45;;;;;;;0.90;0.10;;;19.30;99.90;;;;;;4992400;28;20116;-73
2022/07/15 08:25:11;;;;;;;1.23;0.10;;;19.90;99.90;;;;;;5006068;28;20025;-73
2022/07/15 08:27:37;;;;;;;0.50;0.08;;;20.40;99.90;;;;;;5010269;28;20040;-73
2022/07/15 08:30:04;;;;;;;1.10;0.10;;;20.90;99.90;;;;;;5007424;28;20097;-74
2022/07/15 08:32:29;;;;;;;0.60;0.00;;;19.80;99.90;;;;;;5004170;28;20030;-73
2022/07/15 08:34:55;;;;;;;0.47;0.00;;;19.40;99.90;;;;;;5009951;28;20034;-73
2022/07/15 08:37:20;;;;;;;2.78;0.10;;;19.40;99.90;;;;;;5012313;28;20113;-73
2022/07/15 08:39:46;;;;;;;1.23;0.13;;;19.80;99.90;;;;;;5014872;28;20149;-73
2022/07/15 08:42:15;;;;;;;1.00;0.05;;;20.00;99.90;;;;;;5025404;28;20025;-73
2022/07/15 08:44:41;;;;;;;0.30;0.00;;;20.20;99.90;;;;;;5027497;28;20474;-73
2022/07/15 08:47:07;;;;;;;0.93;0.00;;;21.00;99.90;;;;;;5009916;28;20044;-74
2022/07/15 08:49:34;;;;;;;0.80;0.00;;;22.10;99.90;;;;;;4992033;28;20049;-73
2022/07/15 08:52:01;;;;;;;2.75;0.08;;;21.30;99.90;;;;;;5015446;28;20042;-73
2022/07/15 08:54:28;;;;;;;0.95;0.00;;;20.60;99.90;;;;;;5009970;28;20482;-73
2022/07/15 08:56:54;;;;;;;0.98;0.00;;;19.70;99.90;;;;;;5025126;28;20486;-74
2022/07/15 08:59:20;;;;;;;0.17;0.00;;;19.60;99.90;;;;;;5008637;28;20033;-73
2022/07/15 09:01:50;;;;;;;0.93;0.00;;;19.50;99.90;;;;;;5015049;28;20083;-73
2022/07/15 09:04:17;;;;;;;0.20;0.00;;;19.40;99.90;;;;;;5017207;28;20031;-74
2022/07/15 09:06:48;;;;;;;0.30;0.00;;;19.70;99.90;;;;;;5010555;28;20080;-73
2022/07/15 09:09:30;;;;;;;0.20;0.00;;;21.10;99.90;;;;;;5007868;28;20247;-74
2022/07/15 09:12:05;;;;;;;0.68;0.00;;;21.80;99.90;;;;;;4994962;28;20494;-74
2022/07/15 09:14:33;;;;;;;0.30;0.00;;;20.80;99.90;;;;;;5010244;28;20033;-74
2022/07/15 09:17:11;;;;;;;0.85;0.00;;;20.80;99.90;;;;;;5026038;28;20394;-74
2022/07/15 09:20:16;;;;;;;0.20;0.00;;;20.70;99.90;;;;;;5010745;28;20017;-73
2022/07/15 09:22:56;;;;;;;1.55;0.00;;;20.50;99.90;;;;;;4953114;28;20403;-74
2022/07/15 09:25:22;;;;;;;0.30;0.00;;;20.40;99.90;;;;;;4971607;28;20043;-74
2022/07/15 09:27:49;;;;;;;0.55;0.00;;;20.40;99.90;;;;;;4974585;28;20060;-74
2022/07/15 09:36:22;;;;;;;0.25;0.00;;;20.70;99.90;;;;;;4917850;29;20351;-74
2022/07/15 09:38:56;;;;;;;0.77;0.00;;;22.30;99.90;;;;;;4917770;29;20056;-74
2022/07/15 09:41:36;;;;;;;1.27;0.00;;;21.90;99.90;;;;;;4901737;29;20106;-74
2022/07/15 09:44:11;;;;;;;0.90;0.00;;;21.00;99.90;;;;;;4917486;29;20610;-74
2022/07/15 09:46:41;;;;;;;1.38;0.10;;;21.10;99.90;;;;;;4901993;29;20671;-74
2022/07/15 09:49:07;;;;;;;0.38;0.10;;;21.30;99.90;;;;;;4916756;29;20050;-74
2022/07/15 09:51:50;;;;;;;0.30;0.00;;;21.90;99.90;;;;;;4901739;29;20028;-74
2022/07/15 09:54:16;;;;;;;1.15;0.10;;;21.20;99.90;;;;;;4919134;28;20039;-75
2022/07/15 09:56:44;;;;;;;1.48;0.10;;;20.60;99.90;;;;;;4920707;28;20090;-75
2022/07/15 09:59:10;;;;;;;0.93;0.00;;;20.40;99.90;;;;;;4930093;28;20028;-75
2022/07/15 10:01:36;;;;;;;2.95;0.10;;;20.90;99.90;;;;;;4903517;28;20043;-74
2022/07/15 10:04:04;;;;;;;0.95;0.00;;;20.50;99.90;;;;;;4918741;28;20046;-74
2022/07/15 10:06:32;;;;;;;1.58;0.20;;;20.30;99.90;;;;;;4949359;28;20223;-74
2022/07/15 10:08:58;;;;;;;1.30;0.17;;;20.00;99.90;;;;;;5013048;28;20044;-74
2022/07/15 10:11:24;;;;;;;1.67;0.20;;;19.80;99.90;;;;;;5012210;28;20037;-75
2022/07/15 10:14:27;;;;;;;1.90;0.00;;;19.50;99.90;;;;;;5009530;28;20402;-75
2022/07/15 10:17:17;;;;;;;0.90;0.10;;;19.60;99.90;;;;;;5013258;28;20470;-76
2022/07/15 10:20:14;;;;;;;1.02;0.05;;;19.30;99.90;;;;;;5007735;28;20052;-74
2022/07/15 10:22:42;;;;;;;1.13;0.10;;;19.40;99.90;;;;;;5009300;28;22120;-73
2022/07/15 10:25:14;;;;;;;1.25;0.10;;;19.50;99.90;;;;;;5007134;28;20402;-74
2022/07/15 10:27:52;;;;;;;1.15;0.10;;;20.00;99.90;;;;;;5009895;28;20051;-74
2022/07/15 10:30:23;;;;;;;1.48;0.10;;;20.70;99.90;;;;;;5009268;28;20088;-73
2022/07/15 10:33:06;;;;;;;2.40;0.10;;;21.10;99.90;;;;;;5008116;28;20134;-74
2022/07/15 10:35:50;;;;;;;1.67;0.10;;;21.20;99.90;;;;;;5009903;28;20104;-74
2022/07/15 10:38:32;;;;;;;1.60;0.10;;;20.40;99.90;;;;;;5007263;28;20490;-74
2022/07/15 10:41:02;;;;;;;1.48;0.10;;;20.50;99.90;;;;;;5008239;28;20393;-76
2022/07/15 10:43:37;;;;;;;;;;;20.90;99.90;;;;;;5008445;28;20033;-75
2022/07/15 10:46:04;;;;;;;0.52;0.00;;;21.40;99.90;;;;;;5009482;28;19928;-75
2022/07/15 10:48:30;;;;;;;0.80;0.08;;;21.40;99.90;;;;;;4994898;28;20025;-75
2022/07/15 10:50:56;;;;;;;0.85;0.10;;;21.40;99.90;;;;;;5016247;28;20061;-74
2022/07/15 10:53:27;;;;;;;1.17;0.10;;;20.80;99.90;;;;;;5019414;28;20499;-75
2022/07/15 10:55:53;;;;;;;1.95;0.15;;;20.50;99.90;;;;;;5006405;28;20025;-76
2022/07/15 10:58:19;;;;;;;0.90;0.10;;;20.80;99.90;;;;;;5008301;28;20034;-75
2022/07/15 11:00:46;;;;;;;1.23;0.10;;;20.90;99.90;;;;;;4992372;28;20394;-75
2022/07/15 11:03:17;;;;;;;0.73;0.00;;;22.20;99.90;;;;;;5009569;28;20076;-75
2022/07/15 11:05:52;;;;;;;0.65;0.10;;;21.70;99.90;;;;;;5023558;28;20494;-74
2022/07/15 11:08:33;;;;;;;0.43;0.00;;;21.00;99.90;;;;;;5009396;28;20033;-74
2022/07/15 11:11:14;;;;;;;2.00;0.05;;;21.70;99.90;;;;;;5010551;28;21945;-74
2022/07/15 11:13:46;;;;;;;0.93;0.10;;;22.00;99.90;;;;;;5009867;28;20045;-75
2022/07/15 11:16:13;;;;;;;1.65;0.13;;;21.80;99.90;;;;;;5008031;28;20030;-74
2022/07/15 11:18:46;;;;;;;0.47;0.08;;;21.70;99.90;;;;;;5009418;28;20022;-74
2022/07/15 11:21:13;;;;;;;2.80;0.10;;;22.90;99.90;;;;;;4996335;28;20033;-76
2022/07/15 11:23:38;;;;;;;0.93;0.10;;;22.20;99.90;;;;;;5009533;28;20040;-74
2022/07/15 11:26:04;;;;;;;0.95;0.10;;;21.60;99.90;;;;;;5008438;28;20014;-74
2022/07/15 11:28:30;;;;;;;1.63;0.10;;;21.30;99.90;;;;;;5009555;28;20037;-75
2022/07/15 11:30:56;;;;;;;2.47;0.00;;;20.80;99.90;;;;;;5007319;28;20038;-75
2022/07/15 11:33:27;;;;;;;0.50;0.10;;;20.60;99.90;;;;;;5007603;28;20059;-75
2022/07/15 11:36:02;;;;;;;0.85;0.10;;;20.60;99.90;;;;;;5007913;28;20037;-75
2022/07/15 11:38:37;;;;;;;1.95;0.10;;;20.30;99.90;;;;;;5023357;28;20062;-75
2022/07/15 11:46:46;;;;;;;0.68;0.05;;;20.40;99.90;;;;;;5007926;28;20041;-74
2022/07/15 11:49:24;;;;;;;0.60;0.00;;;21.20;99.90;;;;;;5004323;28;20509;-74
2022/07/15 11:51:50;;;;;;;1.15;0.00;;;21.50;99.90;;;;;;5011802;28;20033;-78
2022/07/15 11:54:18;;;;;;;0.17;0.00;;;21.20;99.90;;;;;;5017986;28;20034;-75
2022/07/15 11:56:51;;;;;;;2.05;0.10;;;20.80;99.90;;;;;;5012299;28;20196;-76
2022/07/15 11:59:17;;;;;;;0.65;0.00;;;20.60;99.90;;;;;;4992567;28;20026;-76
2022/07/15 12:01:43;;;;;;;1.58;0.10;;;20.70;99.90;;;;;;5024128;28;20157;-74
2022/07/15 12:04:10;;;;;;;0.40;0.00;;;21.10;99.90;;;;;;5006953;28;20120;-74
2022/07/15 12:06:36;;;;;;;0.82;0.10;;;20.70;99.90;;;;;;5012380;28;20253;-75
2022/07/15 12:09:08;;;;;;;1.25;0.08;;;20.80;99.90;;;;;;5025721;28;20117;-75
2022/07/15 12:11:36;;;;;;;0.85;0.00;;;20.90;99.90;;;;;;5011387;28;20580;-75
2022/07/15 12:14:17;;;;;;;0.63;0.10;;;21.40;99.90;;;;;;5012226;28;20084;-75
2022/07/15 12:16:46;;;;;;;1.65;0.17;;;21.50;99.90;;;;;;5028333;28;20362;-75
2022/07/15 12:19:17;;;;;;;1.30;0.00;;;22.00;99.90;;;;;;5009419;28;20064;-74
2022/07/15 12:21:46;;;;;;;1.65;0.00;;;22.30;99.90;;;;;;4994434;28;20484;-75
2022/07/15 12:24:15;;;;;;;0.30;0.00;;;22.60;99.90;;;;;;5006879;28;20711;-75
2022/07/15 12:26:50;;;;;;;2.03;0.10;;;22.80;99.90;;;;;;4994696;28;20041;-74
2022/07/15 12:29:21;;;;;;;0.82;0.10;;;22.50;99.90;;;;;;5008174;28;20033;-75
2022/07/15 12:31:56;;;;;;;0.75;0.10;;;22.30;99.90;;;;;;5008815;28;20037;-75
2022/07/15 12:34:22;;;;;;;0.60;0.10;;;22.50;99.90;;;;;;5010101;28;20032;-74
2022/07/15 12:36:56;;;;;;;1.58;0.10;;;23.00;99.90;;;;;;5008590;28;20429;-75
2022/07/15 12:39:22;;;;;;;1.10;0.10;;;22.00;99.90;;;;;;4993786;28;20045;-75
2022/07/15 12:42:17;;;;;;;0.65;0.10;;;22.20;99.90;;;;;;5011102;28;20400;-74
2022/07/15 12:44:43;;;;;;;0.50;0.10;;;22.10;99.90;;;;;;4997018;28;20233;-74
2022/07/15 12:47:08;;;;;;;2.60;0.30;;;23.00;99.90;;;;;;4995774;28;20420;-74
2022/07/15 12:49:45;;;;;;;0.98;0.10;;;22.90;99.90;;;;;;4995635;28;20562;-74
2022/07/15 12:52:15;;;;;;;0.52;0.10;;;23.10;99.90;;;;;;5012765;28;20045;-75
2022/07/15 12:54:41;;;;;;;;;;;23.30;99.90;;;;;;5011179;28;20041;-74
2022/07/15 12:57:35;;;;;;;2.22;0.10;;;23.10;99.90;;;;;;5010553;28;19924;-76
2022/07/15 13:00:10;;;;;;;0.52;0.10;;;23.00;99.90;;;;;;4993507;28;22254;-75
2022/07/15 13:03:14;;;;;;;1.77;0.10;;;22.80;99.90;;;;;;5025718;28;20461;-75
2022/07/15 13:05:45;;;;;;;0.70;0.10;;;22.60;99.90;;;;;;5012136;28;20191;-76
2022/07/15 13:08:22;;;;;;;0.85;0.10;;;23.00;99.90;;;;;;5007452;28;20113;-75
2022/07/15 13:10:50;;;;;;;3.22;0.20;;;22.60;99.90;;;;;;4996815;28;20097;-75
2022/07/15 13:13:17;;;;;;;2.78;0.17;;;21.60;99.90;;;;;;5007799;28;20026;-75